sensor_id;sensor_type;location;lat;lon;timestamp;temperature;humidity
11284;DHT22;5698;47.332;11.180;2023-02-04T00:02:02;1.30;99.90
11284;DHT22;5698;47.332;11.180;2023-02-04T00:04:29;1.20;99.90
11284;DHT22;5698;47.332;11.180;2023-02-04T00:06:56;1.30;99.90
11284;DHT22;5698;47.332;11.180;2023-02-04T00:09:23;1.30;99.90
11284;DHT22;5698;47.332;11.180;2023-02-04T00:11:50;1.20;99.90
11284;DHT22;5698;47.332;11.180;2023-02-04T00:14:17;1.30;99.90
11284;DHT22;5698;47.332;11.180;2023-02-04T00:16:45;1.20;99.90
11284;DHT22;5698;47.332;11.180;2023-02-04T00:19:12;1.20;99.90
11284;DHT22;5698;47.332;11.180;2023-02-04T00:21:39;1.20;99.90
11284;DHT22;5698;47.332;11.180;2023-02-04T00:24:06;1.30;99.90
11284;DHT22;5698;47.332;11.180;2023-02-04T00:26:34;1.20;99.90
11284;DHT22;5698;47.332;11.180;2023-02-04T00:29:01;1.30;99.90
11284;DHT22;5698;47.332;11.180;2023-02-04T00:31:28;1.20;99.90
11284;DHT22;5698;47.332;11.180;2023-02-04T00:33:57;1.30;99.90
11284;DHT22;5698;47.332;11.180;2023-02-04T00:36:25;1.20;99.90
11284;DHT22;5698;47.332;11.180;2023-02-04T00:38:52;1.30;99.90
11284;DHT22;5698;47.332;11.180;2023-02-04T00:41:19;1.30;99.90
11284;DHT22;5698;47.332;11.180;2023-02-04T00:43:46;1.30;99.90
11284;DHT22;5698;47.332;11.180;2023-02-04T00:46:13;1.30;99.90
11284;DHT22;5698;47.332;11.180;2023-02-04T00:48:40;1.30;99.90
11284;DHT22;5698;47.332;11.180;2023-02-04T00:51:08;1.30;99.90
11284;DHT22;5698;47.332;11.180;2023-02-04T00:53:35;1.20;99.90
11284;DHT22;5698;47.332;11.180;2023-02-04T00:56:02;1.20;99.90
11284;DHT22;5698;47.332;11.180;2023-02-04T00:58:29;1.20;99.90
11284;DHT22;5698;47.332;11.180;2023-02-04T01:00:56;1.30;99.90
11284;DHT22;5698;47.332;11.180;2023-02-04T01:03:23;1.30;99.90
11284;DHT22;5698;47.332;11.180;2023-02-04T01:05:50;1.30;99.90
11284;DHT22;5698;47.332;11.180;2023-02-04T01:08:18;1.30;99.90
11284;DHT22;5698;47.332;11.180;2023-02-04T01:10:45;1.30;99.90
11284;DHT22;5698;47.332;11.180;2023-02-04T01:13:12;1.30;99.90
11284;DHT22;5698;47.332;11.180;2023-02-04T01:15:39;1.30;99.90
11284;DHT22;5698;47.332;11.180;2023-02-04T01:18:06;1.30;99.90
11284;DHT22;5698;47.332;11.180;2023-02-04T01:20:33;1.30;99.90
11284;DHT22;5698;47.332;11.180;2023-02-04T01:23:00;1.30;99.90
11284;DHT22;5698;47.332;11.180;2023-02-04T01:25:29;1.30;99.90
11284;DHT22;5698;47.332;11.180;2023-02-04T01:27:56;1.30;99.90
11284;DHT22;5698;47.332;11.180;2023-02-04T01:30:23;1.30;99.90
11284;DHT22;5698;47.332;11.180;2023-02-04T01:32:50;1.30;99.90
11284;DHT22;5698;47.332;11.180;2023-02-04T01:35:17;1.30;99.90
11284;DHT22;5698;47.332;11.180;2023-02-04T01:37:44;1.30;99.90
11284;DHT22;5698;47.332;11.180;2023-02-04T01:40:11;1.30;99.90
11284;DHT22;5698;47.332;11.180;2023-02-04T01:42:40;1.30;99.90
11284;DHT22;5698;47.332;11.180;2023-02-04T01:45:08;1.30;99.90
11284;DHT22;5698;47.332;11.180;2023-02-04T01:47:35;1.30;99.90
11284;DHT22;5698;47.332;11.180;2023-02-04T01:50:04;1.30;99.90
11284;DHT22;5698;47.332;11.180;2023-02-04T01:52:35;1.30;99.90
11284;DHT22;5698;47.332;11.180;2023-02-04T01:55:03;1.20;99.90
11284;DHT22;5698;47.332;11.180;2023-02-04T01:57:32;1.20;99.90
11284;DHT22;5698;47.332;11.180;2023-02-04T02:00:01;1.20;99.90
11284;DHT22;5698;47.332;11.180;2023-02-04T02:02:40;1.20;99.90
11284;DHT22;5698;47.332;11.180;2023-02-04T02:05:08;1.20;99.90
11284;DHT22;5698;47.332;11.180;2023-02-04T02:07:36;1.20;99.90
11284;DHT22;5698;47.332;11.180;2023-02-04T02:10:04;1.20;99.90
11284;DHT22;5698;47.332;11.180;2023-02-04T02:12:32;1.20;99.90
11284;DHT22;5698;47.332;11.180;2023-02-04T02:15:01;1.20;99.90
11284;DHT22;5698;47.332;11.180;2023-02-04T02:17:28;1.20;99.90
11284;DHT22;5698;47.332;11.180;2023-02-04T02:19:55;1.20;99.90
11284;DHT22;5698;47.332;11.180;2023-02-04T02:22:25;1.20;99.90
11284;DHT22;5698;47.332;11.180;2023-02-04T02:24:55;1.20;99.90
11284;DHT22;5698;47.332;11.180;2023-02-04T02:27:22;1.20;99.90
11284;DHT22;5698;47.332;11.180;2023-02-04T02:29:49;1.20;99.90
11284;DHT22;5698;47.332;11.180;2023-02-04T02:32:17;1.20;99.90
11284;DHT22;5698;47.332;11.180;2023-02-04T02:34:45;1.20;99.90
11284;DHT22;5698;47.332;11.180;2023-02-04T02:37:12;1.20;99.90
11284;DHT22;5698;47.332;11.180;2023-02-04T02:39:41;1.20;99.90
11284;DHT22;5698;47.332;11.180;2023-02-04T02:42:14;1.20;99.90
11284;DHT22;5698;47.332;11.180;2023-02-04T02:44:43;1.20;99.90
11284;DHT22;5698;47.332;11.180;2023-02-04T02:47:12;1.20;99.90
11284;DHT22;5698;47.332;11.180;2023-02-04T02:49:41;1.20;99.90
11284;DHT22;5698;47.332;11.180;2023-02-04T02:52:10;1.20;99.90
11284;DHT22;5698;47.332;11.180;2023-02-04T02:54:38;1.20;99.90
11284;DHT22;5698;47.332;11.180;2023-02-04T02:57:13;1.30;99.90
11284;DHT22;5698;47.332;11.180;2023-02-04T02:59:40;1.20;99.90
11284;DHT22;5698;47.332;11.180;2023-02-04T03:02:08;1.20;99.90
11284;DHT22;5698;47.332;11.180;2023-02-04T03:04:38;1.20;99.90
11284;DHT22;5698;47.332;11.180;2023-02-04T03:07:07;1.20;99.90
11284;DHT22;5698;47.332;11.180;2023-02-04T03:09:35;1.20;99.90
11284;DHT22;5698;47.332;11.180;2023-02-04T03:12:04;1.20;99.90
11284;DHT22;5698;47.332;11.180;2023-02-04T03:14:32;1.20;99.90
11284;DHT22;5698;47.332;11.180;2023-02-04T03:17:02;1.20;99.90
11284;DHT22;5698;47.332;11.180;2023-02-04T03:19:30;1.20;99.90
11284;DHT22;5698;47.332;11.180;2023-02-04T03:21:58;1.20;99.90
11284;DHT22;5698;47.332;11.180;2023-02-04T03:24:25;1.20;99.90
11284;DHT22;5698;47.332;11.180;2023-02-04T03:26:53;1.10;99.90
11284;DHT22;5698;47.332;11.180;2023-02-04T03:29:20;1.10;99.90
11284;DHT22;5698;47.332;11.180;2023-02-04T03:31:48;1.10;99.90
11284;DHT22;5698;47.332;11.180;2023-02-04T03:34:15;1.10;99.90
11284;DHT22;5698;47.332;11.180;2023-02-04T03:36:42;1.10;99.90
11284;DHT22;5698;47.332;11.180;2023-02-04T03:39:09;1.10;99.90
11284;DHT22;5698;47.332;11.180;2023-02-04T03:41:36;1.10;99.90
11284;DHT22;5698;47.332;11.180;2023-02-04T03:44:03;1.10;99.90
11284;DHT22;5698;47.332;11.180;2023-02-04T03:46:30;1.20;99.90
11284;DHT22;5698;47.332;11.180;2023-02-04T03:48:59;1.20;99.90
11284;DHT22;5698;47.332;11.180;2023-02-04T03:51:25;1.20;99.90
11284;DHT22;5698;47.332;11.180;2023-02-04T03:53:52;1.20;99.90
11284;DHT22;5698;47.332;11.180;2023-02-04T03:56:19;1.10;99.90
11284;DHT22;5698;47.332;11.180;2023-02-04T03:58:46;1.00;99.90
11284;DHT22;5698;47.332;11.180;2023-02-04T04:01:14;1.00;99.90
11284;DHT22;5698;47.332;11.180;2023-02-04T04:03:41;1.10;99.90
11284;DHT22;5698;47.332;11.180;2023-02-04T04:06:09;1.10;99.90
11284;DHT22;5698;47.332;11.180;2023-02-04T04:08:37;1.10;99.90
11284;DHT22;5698;47.332;11.180;2023-02-04T04:11:04;1.10;99.90
11284;DHT22;5698;47.332;11.180;2023-02-04T04:13:31;1.20;99.90
11284;DHT22;5698;47.332;11.180;2023-02-04T04:15:58;1.20;99.90
11284;DHT22;5698;47.332;11.180;2023-02-04T04:18:25;1.20;99.90
11284;DHT22;5698;47.332;11.180;2023-02-04T04:20:52;1.20;99.90
11284;DHT22;5698;47.332;11.180;2023-02-04T04:23:21;1.20;99.90
11284;DHT22;5698;47.332;11.180;2023-02-04T04:25:48;1.20;99.90
11284;DHT22;5698;47.332;11.180;2023-02-04T04:28:15;1.20;99.90
11284;DHT22;5698;47.332;11.180;2023-02-04T04:30:42;1.30;99.90
11284;DHT22;5698;47.332;11.180;2023-02-04T04:33:09;1.30;99.90
11284;DHT22;5698;47.332;11.180;2023-02-04T04:35:36;1.30;99.90
11284;DHT22;5698;47.332;11.180;2023-02-04T04:38:03;1.20;99.90
11284;DHT22;5698;47.332;11.180;2023-02-04T04:40:31;1.20;99.90
11284;DHT22;5698;47.332;11.180;2023-02-04T04:42:58;1.30;99.90
11284;DHT22;5698;47.332;11.180;2023-02-04T04:45:25;1.30;99.90
11284;DHT22;5698;47.332;11.180;2023-02-04T04:47:53;1.30;99.90
11284;DHT22;5698;47.332;11.180;2023-02-04T04:50:20;1.30;99.90
11284;DHT22;5698;47.332;11.180;2023-02-04T04:52:47;1.20;99.90
11284;DHT22;5698;47.332;11.180;2023-02-04T04:55:14;1.10;99.90
11284;DHT22;5698;47.332;11.180;2023-02-04T04:57:42;1.10;99.90
11284;DHT22;5698;47.332;11.180;2023-02-04T05:00:14;1.10;99.90
11284;DHT22;5698;47.332;11.180;2023-02-04T05:02:42;1.10;99.90
11284;DHT22;5698;47.332;11.180;2023-02-04T05:05:09;1.10;99.90
11284;DHT22;5698;47.332;11.180;2023-02-04T05:07:36;1.00;99.90
11284;DHT22;5698;47.332;11.180;2023-02-04T05:10:04;1.00;99.90
11284;DHT22;5698;47.332;11.180;2023-02-04T05:12:31;1.10;99.90
11284;DHT22;5698;47.332;11.180;2023-02-04T05:14:59;1.20;99.90
11284;DHT22;5698;47.332;11.180;2023-02-04T05:17:26;1.20;99.90
11284;DHT22;5698;47.332;11.180;2023-02-04T05:19:53;1.20;99.90
11284;DHT22;5698;47.332;11.180;2023-02-04T05:22:20;1.10;99.90
11284;DHT22;5698;47.332;11.180;2023-02-04T05:24:47;1.20;99.90
11284;DHT22;5698;47.332;11.180;2023-02-04T05:27:14;1.10;99.90
11284;DHT22;5698;47.332;11.180;2023-02-04T05:29:41;1.10;99.90
11284;DHT22;5698;47.332;11.180;2023-02-04T05:32:10;1.10;99.90
11284;DHT22;5698;47.332;11.180;2023-02-04T05:34:37;1.10;99.90
11284;DHT22;5698;47.332;11.180;2023-02-04T05:37:04;1.10;99.90
11284;DHT22;5698;47.332;11.180;2023-02-04T05:39:31;1.10;99.90
11284;DHT22;5698;47.332;11.180;2023-02-04T05:41:58;1.20;99.90
11284;DHT22;5698;47.332;11.180;2023-02-04T05:44:25;1.10;99.90
11284;DHT22;5698;47.332;11.180;2023-02-04T05:46:52;1.00;99.90
11284;DHT22;5698;47.332;11.180;2023-02-04T05:49:20;1.10;99.90
11284;DHT22;5698;47.332;11.180;2023-02-04T05:51:48;1.10;99.90
11284;DHT22;5698;47.332;11.180;2023-02-04T05:54:15;1.00;99.90
11284;DHT22;5698;47.332;11.180;2023-02-04T05:56:45;1.00;99.90
11284;DHT22;5698;47.332;11.180;2023-02-04T05:59:12;1.00;99.90
11284;DHT22;5698;47.332;11.180;2023-02-04T06:01:39;1.00;99.90
11284;DHT22;5698;47.332;11.180;2023-02-04T06:04:06;0.90;99.90
11284;DHT22;5698;47.332;11.180;2023-02-04T06:06:35;0.90;99.90
11284;DHT22;5698;47.332;11.180;2023-02-04T06:09:02;0.90;99.90
11284;DHT22;5698;47.332;11.180;2023-02-04T06:11:29;0.90;99.90
11284;DHT22;5698;47.332;11.180;2023-02-04T06:13:56;0.90;99.90
11284;DHT22;5698;47.332;11.180;2023-02-04T06:16:23;0.90;99.90
11284;DHT22;5698;47.332;11.180;2023-02-04T06:18:50;0.90;99.90
11284;DHT22;5698;47.332;11.180;2023-02-04T06:21:17;0.80;99.90
11284;DHT22;5698;47.332;11.180;2023-02-04T06:23:46;0.90;99.90
11284;DHT22;5698;47.332;11.180;2023-02-04T06:26:13;0.80;99.90
11284;DHT22;5698;47.332;11.180;2023-02-04T06:28:40;0.80;99.90
11284;DHT22;5698;47.332;11.180;2023-02-04T06:31:07;0.80;99.90
11284;DHT22;5698;47.332;11.180;2023-02-04T06:33:34;0.80;99.90
11284;DHT22;5698;47.332;11.180;2023-02-04T06:36:02;0.80;99.90
11284;DHT22;5698;47.332;11.180;2023-02-04T06:38:29;0.80;99.90
11284;DHT22;5698;47.332;11.180;2023-02-04T06:40:57;0.80;99.90
11284;DHT22;5698;47.332;11.180;2023-02-04T06:43:24;0.80;99.90
11284;DHT22;5698;47.332;11.180;2023-02-04T06:45:52;0.80;99.90
11284;DHT22;5698;47.332;11.180;2023-02-04T06:48:19;0.80;99.90
11284;DHT22;5698;47.332;11.180;2023-02-04T06:50:46;0.80;99.90
11284;DHT22;5698;47.332;11.180;2023-02-04T06:53:13;0.70;99.90
11284;DHT22;5698;47.332;11.180;2023-02-04T06:55:40;0.70;99.90
11284;DHT22;5698;47.332;11.180;2023-02-04T06:58:09;0.70;99.90
11284;DHT22;5698;47.332;11.180;2023-02-04T07:00:36;0.70;99.90
11284;DHT22;5698;47.332;11.180;2023-02-04T07:03:03;0.70;99.90
11284;DHT22;5698;47.332;11.180;2023-02-04T07:05:32;0.70;99.90
11284;DHT22;5698;47.332;11.180;2023-02-04T07:07:59;0.70;99.90
11284;DHT22;5698;47.332;11.180;2023-02-04T07:10:26;0.70;99.90
11284;DHT22;5698;47.332;11.180;2023-02-04T07:12:53;0.70;99.90
11284;DHT22;5698;47.332;11.180;2023-02-04T07:15:21;0.70;99.90
11284;DHT22;5698;47.332;11.180;2023-02-04T07:17:48;0.70;99.90
11284;DHT22;5698;47.332;11.180;2023-02-04T07:20:15;0.70;99.90
11284;DHT22;5698;47.332;11.180;2023-02-04T07:22:42;0.70;99.90
11284;DHT22;5698;47.332;11.180;2023-02-04T07:25:09;0.70;99.90
11284;DHT22;5698;47.332;11.180;2023-02-04T07:27:39;0.70;99.90
11284;DHT22;5698;47.332;11.180;2023-02-04T07:30:09;0.70;99.90
11284;DHT22;5698;47.332;11.180;2023-02-04T07:32:37;0.70;99.90
11284;DHT22;5698;47.332;11.180;2023-02-04T07:35:05;0.70;99.90
11284;DHT22;5698;47.332;11.180;2023-02-04T07:37:32;0.70;99.90
11284;DHT22;5698;47.332;11.180;2023-02-04T07:39:59;0.70;99.90
11284;DHT22;5698;47.332;11.180;2023-02-04T07:42:26;0.70;99.90
11284;DHT22;5698;47.332;11.180;2023-02-04T07:44:53;0.70;99.90
11284;DHT22;5698;47.332;11.180;2023-02-04T07:47:20;0.80;99.90
11284;DHT22;5698;47.332;11.180;2023-02-04T07:49:49;0.80;99.90
11284;DHT22;5698;47.332;11.180;2023-02-04T07:52:16;0.90;99.90
11284;DHT22;5698;47.332;11.180;2023-02-04T07:54:43;0.90;99.90
11284;DHT22;5698;47.332;11.180;2023-02-04T07:57:10;0.90;99.90
11284;DHT22;5698;47.332;11.180;2023-02-04T07:59:37;0.90;99.90
11284;DHT22;5698;47.332;11.180;2023-02-04T08:02:04;0.90;99.90
11284;DHT22;5698;47.332;11.180;2023-02-04T08:04:31;0.90;99.90
11284;DHT22;5698;47.332;11.180;2023-02-04T08:07:00;0.90;99.90
11284;DHT22;5698;47.332;11.180;2023-02-04T08:09:27;0.80;99.90
11284;DHT22;5698;47.332;11.180;2023-02-04T08:11:54;0.90;99.90
11284;DHT22;5698;47.332;11.180;2023-02-04T08:14:21;0.90;99.90
11284;DHT22;5698;47.332;11.180;2023-02-04T08:16:48;0.90;99.90
11284;DHT22;5698;47.332;11.180;2023-02-04T08:19:14;1.00;99.90
11284;DHT22;5698;47.332;11.180;2023-02-04T08:21:45;1.00;99.90
11284;DHT22;5698;47.332;11.180;2023-02-04T08:24:15;1.10;99.90
11284;DHT22;5698;47.332;11.180;2023-02-04T08:26:43;1.10;99.90
11284;DHT22;5698;47.332;11.180;2023-02-04T08:29:10;1.10;99.90
11284;DHT22;5698;47.332;11.180;2023-02-04T08:31:37;1.10;99.90
11284;DHT22;5698;47.332;11.180;2023-02-04T08:34:05;1.10;99.90
11284;DHT22;5698;47.332;11.180;2023-02-04T08:36:32;1.10;99.90
11284;DHT22;5698;47.332;11.180;2023-02-04T08:38:59;1.00;99.90
11284;DHT22;5698;47.332;11.180;2023-02-04T08:41:27;1.00;99.90
11284;DHT22;5698;47.332;11.180;2023-02-04T08:43:54;1.00;99.90
11284;DHT22;5698;47.332;11.180;2023-02-04T08:46:21;1.00;99.90
11284;DHT22;5698;47.332;11.180;2023-02-04T08:48:48;1.00;99.90
11284;DHT22;5698;47.332;11.180;2023-02-04T08:51:15;1.00;99.90
11284;DHT22;5698;47.332;11.180;2023-02-04T08:53:42;1.10;99.90
11284;DHT22;5698;47.332;11.180;2023-02-04T08:56:09;1.10;99.90
11284;DHT22;5698;47.332;11.180;2023-02-04T08:58:42;1.10;99.90
11284;DHT22;5698;47.332;11.180;2023-02-04T09:01:10;1.20;99.90
11284;DHT22;5698;47.332;11.180;2023-02-04T09:03:37;1.20;99.90
11284;DHT22;5698;47.332;11.180;2023-02-04T09:06:04;1.10;99.90
11284;DHT22;5698;47.332;11.180;2023-02-04T09:08:32;1.10;99.90
11284;DHT22;5698;47.332;11.180;2023-02-04T09:10:59;1.10;99.90
11284;DHT22;5698;47.332;11.180;2023-02-04T09:13:26;1.10;99.90
11284;DHT22;5698;47.332;11.180;2023-02-04T09:15:55;1.10;99.90
11284;DHT22;5698;47.332;11.180;2023-02-04T09:18:22;1.00;99.90
11284;DHT22;5698;47.332;11.180;2023-02-04T09:20:51;0.90;99.90
11284;DHT22;5698;47.332;11.180;2023-02-04T09:23:18;0.80;99.90
11284;DHT22;5698;47.332;11.180;2023-02-04T09:25:45;0.80;99.90
11284;DHT22;5698;47.332;11.180;2023-02-04T09:28:13;0.80;99.90
11284;DHT22;5698;47.332;11.180;2023-02-04T09:30:43;0.80;99.90
11284;DHT22;5698;47.332;11.180;2023-02-04T09:33:14;0.90;99.90
11284;DHT22;5698;47.332;11.180;2023-02-04T09:35:42;0.90;99.90
11284;DHT22;5698;47.332;11.180;2023-02-04T09:38:09;0.90;99.90
11284;DHT22;5698;47.332;11.180;2023-02-04T09:40:39;0.90;99.90
11284;DHT22;5698;47.332;11.180;2023-02-04T09:43:11;0.90;99.90
11284;DHT22;5698;47.332;11.180;2023-02-04T09:45:39;0.80;99.90
11284;DHT22;5698;47.332;11.180;2023-02-04T09:48:08;0.80;99.90
11284;DHT22;5698;47.332;11.180;2023-02-04T09:50:40;0.70;99.90
11284;DHT22;5698;47.332;11.180;2023-02-04T09:53:12;0.80;99.90
11284;DHT22;5698;47.332;11.180;2023-02-04T09:55:42;0.80;99.90
11284;DHT22;5698;47.332;11.180;2023-02-04T09:58:13;0.80;99.90
11284;DHT22;5698;47.332;11.180;2023-02-04T10:00:42;0.70;99.90
11284;DHT22;5698;47.332;11.180;2023-02-04T10:03:13;0.70;99.90
11284;DHT22;5698;47.332;11.180;2023-02-04T10:05:43;0.60;99.90
11284;DHT22;5698;47.332;11.180;2023-02-04T10:08:13;0.70;99.90
11284;DHT22;5698;47.332;11.180;2023-02-04T10:10:41;0.70;99.90
11284;DHT22;5698;47.332;11.180;2023-02-04T10:13:16;0.80;99.90
11284;DHT22;5698;47.332;11.180;2023-02-04T10:15:44;0.80;99.90
11284;DHT22;5698;47.332;11.180;2023-02-04T10:18:15;0.80;99.90
11284;DHT22;5698;47.332;11.180;2023-02-04T10:20:45;0.90;99.90
11284;DHT22;5698;47.332;11.180;2023-02-04T10:23:12;1.10;99.90
11284;DHT22;5698;47.332;11.180;2023-02-04T10:25:39;1.20;99.90
11284;DHT22;5698;47.332;11.180;2023-02-04T10:28:06;1.40;99.90
11284;DHT22;5698;47.332;11.180;2023-02-04T10:30:37;1.50;99.90
11284;DHT22;5698;47.332;11.180;2023-02-04T10:33:12;1.60;99.90
11284;DHT22;5698;47.332;11.180;2023-02-04T10:35:46;1.60;99.90
11284;DHT22;5698;47.332;11.180;2023-02-04T10:38:13;1.60;99.90
11284;DHT22;5698;47.332;11.180;2023-02-04T10:40:40;1.70;99.90
11284;DHT22;5698;47.332;11.180;2023-02-04T10:43:08;1.90;99.90
11284;DHT22;5698;47.332;11.180;2023-02-04T10:45:36;2.10;99.90
11284;DHT22;5698;47.332;11.180;2023-02-04T10:48:04;2.40;99.90
11284;DHT22;5698;47.332;11.180;2023-02-04T10:50:32;2.60;99.90
11284;DHT22;5698;47.332;11.180;2023-02-04T10:53:01;2.70;99.90
11284;DHT22;5698;47.332;11.180;2023-02-04T10:55:51;2.90;99.90
11284;DHT22;5698;47.332;11.180;2023-02-04T10:58:23;3.00;99.90
11284;DHT22;5698;47.332;11.180;2023-02-04T11:00:52;3.20;99.90
11284;DHT22;5698;47.332;11.180;2023-02-04T11:03:22;3.30;99.90
11284;DHT22;5698;47.332;11.180;2023-02-04T11:05:50;3.40;99.90
11284;DHT22;5698;47.332;11.180;2023-02-04T11:08:24;3.70;99.90
11284;DHT22;5698;47.332;11.180;2023-02-04T11:10:55;3.80;99.90
11284;DHT22;5698;47.332;11.180;2023-02-04T11:13:25;4.00;99.90
11284;DHT22;5698;47.332;11.180;2023-02-04T11:16:10;4.00;99.90
11284;DHT22;5698;47.332;11.180;2023-02-04T11:18:47;4.20;99.90
11284;DHT22;5698;47.332;11.180;2023-02-04T11:21:23;4.40;99.90
11284;DHT22;5698;47.332;11.180;2023-02-04T11:24:02;4.30;99.90
11284;DHT22;5698;47.332;11.180;2023-02-04T11:26:35;4.20;99.90
11284;DHT22;5698;47.332;11.180;2023-02-04T11:29:25;4.20;99.90
11284;DHT22;5698;47.332;11.180;2023-02-04T11:32:00;4.20;99.90
11284;DHT22;5698;47.332;11.180;2023-02-04T11:34:30;4.30;99.90
11284;DHT22;5698;47.332;11.180;2023-02-04T11:37:15;4.00;99.90
11284;DHT22;5698;47.332;11.180;2023-02-04T11:39:45;4.20;99.90
11284;DHT22;5698;47.332;11.180;2023-02-04T11:42:18;4.50;99.90
11284;DHT22;5698;47.332;11.180;2023-02-04T11:44:53;4.30;99.90
11284;DHT22;5698;47.332;11.180;2023-02-04T11:47:22;4.00;99.90
11284;DHT22;5698;47.332;11.180;2023-02-04T11:49:54;3.80;99.90
11284;DHT22;5698;47.332;11.180;2023-02-04T11:52:22;3.70;99.90
11284;DHT22;5698;47.332;11.180;2023-02-04T11:54:55;3.50;99.90
11284;DHT22;5698;47.332;11.180;2023-02-04T11:57:22;3.30;99.90
11284;DHT22;5698;47.332;11.180;2023-02-04T11:59:49;3.20;99.90
11284;DHT22;5698;47.332;11.180;2023-02-04T12:02:18;3.30;99.90
11284;DHT22;5698;47.332;11.180;2023-02-04T12:04:56;3.30;99.90
11284;DHT22;5698;47.332;11.180;2023-02-04T12:07:26;3.50;99.90
11284;DHT22;5698;47.332;11.180;2023-02-04T12:09:55;3.50;99.90
11284;DHT22;5698;47.332;11.180;2023-02-04T12:12:23;3.50;99.90
11284;DHT22;5698;47.332;11.180;2023-02-04T12:14:57;3.40;99.90
11284;DHT22;5698;47.332;11.180;2023-02-04T12:17:24;3.20;99.90
11284;DHT22;5698;47.332;11.180;2023-02-04T12:19:51;3.00;99.90
11284;DHT22;5698;47.332;11.180;2023-02-04T12:22:18;2.90;99.90
11284;DHT22;5698;47.332;11.180;2023-02-04T12:24:45;2.90;99.90
11284;DHT22;5698;47.332;11.180;2023-02-04T12:27:13;2.90;99.90
11284;DHT22;5698;47.332;11.180;2023-02-04T12:29:40;3.10;99.90
11284;DHT22;5698;47.332;11.180;2023-02-04T12:32:07;3.10;99.90
11284;DHT22;5698;47.332;11.180;2023-02-04T12:34:34;3.10;99.90
11284;DHT22;5698;47.332;11.180;2023-02-04T12:37:01;3.00;99.90
11284;DHT22;5698;47.332;11.180;2023-02-04T12:39:28;3.00;99.90
11284;DHT22;5698;47.332;11.180;2023-02-04T12:41:56;3.20;99.90
11284;DHT22;5698;47.332;11.180;2023-02-04T12:44:25;3.30;99.90
11284;DHT22;5698;47.332;11.180;2023-02-04T12:46:52;3.20;99.90
11284;DHT22;5698;47.332;11.180;2023-02-04T12:49:19;3.20;99.90
11284;DHT22;5698;47.332;11.180;2023-02-04T12:51:49;3.20;99.90
11284;DHT22;5698;47.332;11.180;2023-02-04T12:54:16;3.10;99.90
11284;DHT22;5698;47.332;11.180;2023-02-04T12:56:43;3.20;99.90
11284;DHT22;5698;47.332;11.180;2023-02-04T12:59:10;3.30;99.90
11284;DHT22;5698;47.332;11.180;2023-02-04T13:01:38;3.20;99.90
11284;DHT22;5698;47.332;11.180;2023-02-04T13:04:05;3.40;99.90
11284;DHT22;5698;47.332;11.180;2023-02-04T13:06:32;3.50;99.90
11284;DHT22;5698;47.332;11.180;2023-02-04T13:09:00;3.50;99.90
11284;DHT22;5698;47.332;11.180;2023-02-04T13:11:27;3.40;99.90
11284;DHT22;5698;47.332;11.180;2023-02-04T13:13:54;3.20;99.90
11284;DHT22;5698;47.332;11.180;2023-02-04T13:16:21;3.20;99.90
11284;DHT22;5698;47.332;11.180;2023-02-04T13:18:50;3.20;99.90
11284;DHT22;5698;47.332;11.180;2023-02-04T13:21:18;3.10;99.90
11284;DHT22;5698;47.332;11.180;2023-02-04T13:23:45;3.00;99.90
11284;DHT22;5698;47.332;11.180;2023-02-04T13:26:12;2.80;99.90
11284;DHT22;5698;47.332;11.180;2023-02-04T13:28:39;2.70;99.90
11284;DHT22;5698;47.332;11.180;2023-02-04T13:31:06;2.30;99.90
11284;DHT22;5698;47.332;11.180;2023-02-04T13:33:32;2.20;99.90
11284;DHT22;5698;47.332;11.180;2023-02-04T13:36:01;2.20;99.90
11284;DHT22;5698;47.332;11.180;2023-02-04T13:38:28;2.20;99.90
11284;DHT22;5698;47.332;11.180;2023-02-04T13:40:55;2.20;99.90
11284;DHT22;5698;47.332;11.180;2023-02-04T13:43:22;2.30;99.90
11284;DHT22;5698;47.332;11.180;2023-02-04T13:45:49;2.10;99.90
11284;DHT22;5698;47.332;11.180;2023-02-04T13:48:16;2.00;99.90
11284;DHT22;5698;47.332;11.180;2023-02-04T13:50:43;1.90;99.90
11284;DHT22;5698;47.332;11.180;2023-02-04T13:53:12;1.90;99.90
11284;DHT22;5698;47.332;11.180;2023-02-04T13:55:39;1.90;99.90
11284;DHT22;5698;47.332;11.180;2023-02-04T13:58:06;1.80;99.90
11284;DHT22;5698;47.332;11.180;2023-02-04T14:00:33;1.70;99.90
11284;DHT22;5698;47.332;11.180;2023-02-04T14:03:00;1.50;99.90
11284;DHT22;5698;47.332;11.180;2023-02-04T14:05:27;1.40;99.90
11284;DHT22;5698;47.332;11.180;2023-02-04T14:07:54;1.50;99.90
11284;DHT22;5698;47.332;11.180;2023-02-04T14:10:22;1.40;99.90
11284;DHT22;5698;47.332;11.180;2023-02-04T14:12:51;1.40;99.90
11284;DHT22;5698;47.332;11.180;2023-02-04T14:15:18;1.50;99.90
11284;DHT22;5698;47.332;11.180;2023-02-04T14:17:45;1.40;99.90
11284;DHT22;5698;47.332;11.180;2023-02-04T14:20:12;1.50;99.90
11284;DHT22;5698;47.332;11.180;2023-02-04T14:22:39;1.40;99.90
11284;DHT22;5698;47.332;11.180;2023-02-04T14:25:07;1.30;99.90
11284;DHT22;5698;47.332;11.180;2023-02-04T14:27:36;1.20;99.90
11284;DHT22;5698;47.332;11.180;2023-02-04T14:30:09;1.10;99.90
11284;DHT22;5698;47.332;11.180;2023-02-04T14:32:41;1.10;99.90
11284;DHT22;5698;47.332;11.180;2023-02-04T14:35:08;1.10;99.90
11284;DHT22;5698;47.332;11.180;2023-02-04T14:37:35;1.00;99.90
11284;DHT22;5698;47.332;11.180;2023-02-04T14:40:02;1.10;99.90
11284;DHT22;5698;47.332;11.180;2023-02-04T14:42:29;1.10;99.90
11284;DHT22;5698;47.332;11.180;2023-02-04T14:44:58;1.10;99.90
11284;DHT22;5698;47.332;11.180;2023-02-04T14:47:25;1.20;99.90
11284;DHT22;5698;47.332;11.180;2023-02-04T14:49:52;1.20;99.90
11284;DHT22;5698;47.332;11.180;2023-02-04T14:52:19;1.20;99.90
11284;DHT22;5698;47.332;11.180;2023-02-04T14:54:46;1.20;99.90
11284;DHT22;5698;47.332;11.180;2023-02-04T14:57:13;1.20;99.90
11284;DHT22;5698;47.332;11.180;2023-02-04T14:59:40;1.20;99.90
11284;DHT22;5698;47.332;11.180;2023-02-04T15:02:10;1.20;99.90
11284;DHT22;5698;47.332;11.180;2023-02-04T15:04:39;1.10;99.90
11284;DHT22;5698;47.332;11.180;2023-02-04T15:07:06;1.10;99.90
11284;DHT22;5698;47.332;11.180;2023-02-04T15:09:33;1.00;99.90
11284;DHT22;5698;47.332;11.180;2023-02-04T15:12:00;1.00;99.90
11284;DHT22;5698;47.332;11.180;2023-02-04T15:14:27;1.00;99.90
11284;DHT22;5698;47.332;11.180;2023-02-04T15:16:54;0.90;99.90
11284;DHT22;5698;47.332;11.180;2023-02-04T15:19:23;0.90;99.90
11284;DHT22;5698;47.332;11.180;2023-02-04T15:21:50;0.90;99.90
11284;DHT22;5698;47.332;11.180;2023-02-04T15:24:18;0.90;99.90
11284;DHT22;5698;47.332;11.180;2023-02-04T15:26:48;0.80;99.90
11284;DHT22;5698;47.332;11.180;2023-02-04T15:29:16;0.80;99.90
11284;DHT22;5698;47.332;11.180;2023-02-04T15:31:43;0.80;99.90
11284;DHT22;5698;47.332;11.180;2023-02-04T15:34:10;0.70;99.90
11284;DHT22;5698;47.332;11.180;2023-02-04T15:36:38;0.60;99.90
11284;DHT22;5698;47.332;11.180;2023-02-04T15:39:05;0.60;99.90
11284;DHT22;5698;47.332;11.180;2023-02-04T15:41:32;0.50;99.90
11284;DHT22;5698;47.332;11.180;2023-02-04T15:43:59;0.50;99.90
11284;DHT22;5698;47.332;11.180;2023-02-04T15:46:26;0.60;99.90
11284;DHT22;5698;47.332;11.180;2023-02-04T15:48:53;0.60;99.90
11284;DHT22;5698;47.332;11.180;2023-02-04T15:51:20;0.50;99.90